Terminal Aerodrome Forecast
Issued by NWS Wilmington, NC

Home | Current Version | Previous Version | Text Only | Print | Product List | Glossary On
Versions: 1 2 3 4 5 6 7 8 9 10 11 12 13
744
FTUS42 KILM 110622 CCA
TAFFLO
TAF COR
KFLO 110622Z 1106/1206 00000KT P6SM SKC
     FM111300 07005KT P6SM SCT050
     FM111600 10007KT P6SM SCT025 BKN050
     FM120300 14007KT P6SM SCT015 BKN040=

USA.gov is the U.S. government's official web portal to all federal, state and local government web resources and services.